createdAt,value
2023-05-24T00:00:48.352Z,24.36
2023-05-24T00:01:48.287Z,24.36
2023-05-24T00:02:48.335Z,24.37
2023-05-24T00:03:48.356Z,24.37
2023-05-24T00:04:48.298Z,24.37
2023-05-24T00:05:48.230Z,24.37
2023-05-24T00:06:48.277Z,24.36
2023-05-24T00:07:48.218Z,24.37
2023-05-24T00:08:48.193Z,24.37
2023-05-24T00:09:48.176Z,24.37
2023-05-24T00:10:48.163Z,24.37
2023-05-24T00:11:48.154Z,24.36
2023-05-24T00:12:48.135Z,24.36
2023-05-24T00:13:48.126Z,24.34
2023-05-24T00:14:48.104Z,24.33
2023-05-24T00:15:48.126Z,24.34
2023-05-24T00:16:48.086Z,24.34
2023-05-24T00:17:48.109Z,24.36
2023-05-24T00:18:48.066Z,24.36
2023-05-24T00:19:48.075Z,24.37
2023-05-24T00:20:48.330Z,24.37
2023-05-24T00:21:48.035Z,24.36
2023-05-24T00:22:48.018Z,24.36
2023-05-24T00:23:48.012Z,24.37
2023-05-24T00:24:48.027Z,24.34
2023-05-24T00:25:47.988Z,24.36
2023-05-24T00:26:47.991Z,24.36
2023-05-24T00:27:47.982Z,24.36
2023-05-24T00:28:47.963Z,24.33
2023-05-24T00:29:48.022Z,24.36
2023-05-24T00:30:47.997Z,24.34
2023-05-24T00:31:47.934Z,24.36
2023-05-24T00:32:47.951Z,24.36
2023-05-24T00:33:47.971Z,24.34
2023-05-24T00:34:47.899Z,24.36
2023-05-24T00:35:47.918Z,24.34
2023-05-24T00:36:47.956Z,24.34
2023-05-24T00:37:47.874Z,24.34
2023-05-24T00:38:47.874Z,24.36
2023-05-24T00:39:47.837Z,24.37
2023-05-24T00:40:47.838Z,24.33
2023-05-24T00:41:47.814Z,24.37
2023-05-24T00:42:47.803Z,24.36
2023-05-24T00:43:47.786Z,24.34
2023-05-24T00:44:47.778Z,24.34
2023-05-24T00:45:47.810Z,24.33
2023-05-24T00:46:47.744Z,24.34
2023-05-24T00:47:47.768Z,24.34
2023-05-24T00:48:47.723Z,24.36
2023-05-24T00:49:47.713Z,24.33
2023-05-24T00:50:47.706Z,24.36
2023-05-24T00:51:47.690Z,24.31
2023-05-24T00:52:47.697Z,24.33
2023-05-24T00:53:47.685Z,24.31
2023-05-24T00:54:47.657Z,24.33
2023-05-24T00:55:47.666Z,24.33
2023-05-24T00:56:47.693Z,24.33
2023-05-24T00:57:47.719Z,24.33
2023-05-24T00:58:47.650Z,24.31
2023-05-24T00:59:47.689Z,24.33
2023-05-24T01:00:47.608Z,24.33
2023-05-24T01:01:47.646Z,24.33
2023-05-24T01:02:47.693Z,24.31
2023-05-24T01:03:47.673Z,24.34
2023-05-24T01:04:47.556Z,24.31
2023-05-24T01:05:47.563Z,24.33
2023-05-24T01:06:47.527Z,24.31
2023-05-24T01:07:47.529Z,24.31
2023-05-24T01:08:47.519Z,24.30
2023-05-24T01:09:47.506Z,24.31
2023-05-24T01:10:47.505Z,24.30
2023-05-24T01:11:47.486Z,24.31
2023-05-24T01:12:47.499Z,24.31
2023-05-24T01:13:47.512Z,24.30
2023-05-24T01:14:47.467Z,24.33
2023-05-24T01:15:47.499Z,24.30
2023-05-24T01:16:47.462Z,24.29
2023-05-24T01:17:47.502Z,24.31
2023-05-24T01:18:47.461Z,24.30
2023-05-24T01:19:47.430Z,24.31
2023-05-24T01:20:47.695Z,24.30
2023-05-24T01:21:47.433Z,24.31
2023-05-24T01:22:47.409Z,24.31
2023-05-24T01:23:47.392Z,24.30
2023-05-24T01:24:47.380Z,24.30
2023-05-24T01:25:47.388Z,24.31
2023-05-24T01:26:47.368Z,24.30
2023-05-24T01:27:47.384Z,24.29
2023-05-24T01:28:47.348Z,24.27
2023-05-24T01:29:47.343Z,24.29
2023-05-24T01:30:47.354Z,24.29
2023-05-24T01:31:47.429Z,24.26
2023-05-24T01:32:47.355Z,24.27
2023-05-24T01:33:47.288Z,24.27
2023-05-24T01:34:47.305Z,24.26
2023-05-24T01:35:47.340Z,24.24
2023-05-24T01:36:47.261Z,24.26
2023-05-24T01:37:47.270Z,24.26
2023-05-24T01:38:47.256Z,24.29
2023-05-24T01:39:47.225Z,24.26
2023-05-24T01:40:47.227Z,24.27
2023-05-24T01:41:47.248Z,24.24
2023-05-24T01:42:47.266Z,24.26
2023-05-24T01:43:47.271Z,24.24
2023-05-24T01:44:47.307Z,24.24
2023-05-24T01:45:47.328Z,24.27
2023-05-24T01:46:47.385Z,24.24
2023-05-24T01:47:47.370Z,24.26
2023-05-24T01:48:47.382Z,24.26
2023-05-24T01:49:47.453Z,24.26
2023-05-24T01:50:47.474Z,24.27
2023-05-24T01:51:47.599Z,24.26
2023-05-24T01:52:47.539Z,24.26
2023-05-24T01:53:47.680Z,24.23
2023-05-24T01:54:47.575Z,24.27
2023-05-24T01:55:47.576Z,24.24
2023-05-24T01:56:47.593Z,24.21
2023-05-24T01:57:47.581Z,24.21
2023-05-24T01:58:47.581Z,24.23
2023-05-24T01:59:47.572Z,24.23
2023-05-24T02:00:47.587Z,24.23
2023-05-24T02:01:47.560Z,24.23
2023-05-24T02:02:47.628Z,24.23
2023-05-24T02:03:47.556Z,24.23
2023-05-24T02:04:47.607Z,24.20
2023-05-24T02:05:47.564Z,24.21
2023-05-24T02:06:47.569Z,24.20
2023-05-24T02:07:47.538Z,24.21
2023-05-24T02:08:47.596Z,24.23
2023-05-24T02:09:47.566Z,24.21
2023-05-24T02:10:47.580Z,24.23
2023-05-24T02:11:47.582Z,24.21
2023-05-24T02:12:47.537Z,24.20
2023-05-24T02:13:47.528Z,24.20
2023-05-24T02:14:47.512Z,24.21
2023-05-24T02:15:47.513Z,24.19
2023-05-24T02:16:47.536Z,24.21
2023-05-24T02:17:47.642Z,24.20
2023-05-24T02:18:47.498Z,24.21
2023-05-24T02:19:47.531Z,24.23
2023-05-24T02:20:47.478Z,24.20
2023-05-24T02:21:47.484Z,24.21
2023-05-24T02:22:47.472Z,24.20
2023-05-24T02:23:47.500Z,24.20
2023-05-24T02:24:47.478Z,24.21
2023-05-24T02:25:47.484Z,24.20
2023-05-24T02:26:47.487Z,24.21
2023-05-24T02:27:47.487Z,24.20
2023-05-24T02:28:47.462Z,24.20
2023-05-24T02:29:47.472Z,24.21
2023-05-24T02:30:47.585Z,24.21
2023-05-24T02:31:47.468Z,24.23
2023-05-24T02:32:47.469Z,24.20
2023-05-24T02:33:47.458Z,24.23
2023-05-24T02:34:47.426Z,24.20
2023-05-24T02:35:47.418Z,24.20
2023-05-24T02:36:47.425Z,24.19
2023-05-24T02:37:47.426Z,24.21
2023-05-24T02:38:47.403Z,24.21
2023-05-24T02:39:47.372Z,24.21
2023-05-24T02:40:47.368Z,24.21
2023-05-24T02:41:47.363Z,24.20
2023-05-24T02:42:47.340Z,24.23
2023-05-24T02:43:47.334Z,24.23
2023-05-24T02:44:47.326Z,24.20
2023-05-24T02:45:47.311Z,24.21
2023-05-24T02:46:47.437Z,24.20
2023-05-24T02:47:47.361Z,24.20
2023-05-24T02:48:47.299Z,24.19
2023-05-24T02:49:47.299Z,24.19
2023-05-24T02:50:47.279Z,24.19
2023-05-24T02:51:47.271Z,24.19
2023-05-24T02:52:47.247Z,24.20
2023-05-24T02:53:47.253Z,24.19
2023-05-24T02:54:47.250Z,24.19
2023-05-24T02:55:47.242Z,24.19
2023-05-24T02:56:47.219Z,24.19
2023-05-24T02:57:47.222Z,24.17
2023-05-24T02:58:47.218Z,24.19
2023-05-24T02:59:47.219Z,24.17
2023-05-24T03:00:47.209Z,24.17
2023-05-24T03:01:47.213Z,24.17
2023-05-24T03:02:47.240Z,24.17
2023-05-24T03:03:47.283Z,24.17
2023-05-24T03:04:47.187Z,24.16
2023-05-24T03:05:47.220Z,24.17
2023-05-24T03:06:47.181Z,24.16
2023-05-24T03:07:47.175Z,24.20
2023-05-24T03:08:47.155Z,24.16
2023-05-24T03:09:47.147Z,24.16
2023-05-24T03:10:47.136Z,24.16
2023-05-24T03:11:47.156Z,24.17
2023-05-24T03:12:47.137Z,24.17
2023-05-24T03:13:47.146Z,24.17
2023-05-24T03:14:47.138Z,24.16
2023-05-24T03:15:47.168Z,24.15
2023-05-24T03:16:47.096Z,24.16
2023-05-24T03:17:47.172Z,24.16
2023-05-24T03:18:47.093Z,24.16
2023-05-24T03:19:47.083Z,24.13
2023-05-24T03:20:47.119Z,24.16
2023-05-24T03:21:47.060Z,24.13
2023-05-24T03:22:47.076Z,24.16
2023-05-24T03:23:47.053Z,24.15
2023-05-24T03:24:47.045Z,24.16
2023-05-24T03:25:47.039Z,24.16
2023-05-24T03:26:47.016Z,24.16
2023-05-24T03:27:47.001Z,24.13
2023-05-24T03:28:46.999Z,24.16
2023-05-24T03:29:46.981Z,24.13
2023-05-24T03:30:47.001Z,24.17
2023-05-24T03:31:47.063Z,24.15
2023-05-24T03:32:47.025Z,24.16
2023-05-24T03:33:46.979Z,24.15
2023-05-24T03:34:46.977Z,24.16
2023-05-24T03:35:46.936Z,24.16
2023-05-24T03:36:46.937Z,24.15
2023-05-24T03:37:46.914Z,24.16
2023-05-24T03:38:46.886Z,24.15
2023-05-24T03:39:46.887Z,24.16
2023-05-24T03:40:46.881Z,24.15
2023-05-24T03:41:46.890Z,24.16
2023-05-24T03:42:46.856Z,24.13
2023-05-24T03:43:46.849Z,24.15
2023-05-24T03:44:46.828Z,24.16
2023-05-24T03:45:46.851Z,24.16
2023-05-24T03:46:46.826Z,24.15
2023-05-24T03:47:46.831Z,24.16
2023-05-24T03:48:46.793Z,24.15
2023-05-24T03:49:46.800Z,24.15
2023-05-24T03:50:46.781Z,24.15
2023-05-24T03:51:46.777Z,24.16
2023-05-24T03:52:46.772Z,24.13
2023-05-24T03:53:46.797Z,24.16
2023-05-24T03:54:46.772Z,24.15
2023-05-24T03:55:47.075Z,24.15
2023-05-24T03:56:46.747Z,24.15
2023-05-24T03:57:46.736Z,24.16
2023-05-24T03:58:46.759Z,24.13
2023-05-24T03:59:46.726Z,24.13
2023-05-24T04:00:46.713Z,24.13
2023-05-24T04:01:46.688Z,24.13
2023-05-24T04:02:46.729Z,24.15
2023-05-24T04:03:46.698Z,24.12
2023-05-24T04:04:46.657Z,24.13
2023-05-24T04:05:46.650Z,24.13
2023-05-24T04:06:46.649Z,24.13
2023-05-24T04:07:46.666Z,24.15
2023-05-24T04:08:46.616Z,24.13
2023-05-24T04:09:46.613Z,24.15
2023-05-24T04:10:46.607Z,24.15
2023-05-24T04:11:46.609Z,24.15
2023-05-24T04:12:46.593Z,24.15
2023-05-24T04:13:46.587Z,24.15
2023-05-24T04:14:46.579Z,24.13
2023-05-24T04:15:46.582Z,24.13
2023-05-24T04:16:46.569Z,24.13
2023-05-24T04:17:46.740Z,24.13
2023-05-24T04:18:46.727Z,24.13
2023-05-24T04:19:46.577Z,24.15
2023-05-24T04:20:46.597Z,24.12
2023-05-24T04:21:46.650Z,24.16
2023-05-24T04:22:46.593Z,24.12
2023-05-24T04:23:46.592Z,24.13
2023-05-24T04:24:46.593Z,24.13
2023-05-24T04:25:46.599Z,24.15
2023-05-24T04:26:46.603Z,24.12
2023-05-24T04:27:46.601Z,24.13
2023-05-24T04:28:46.616Z,24.15
2023-05-24T04:29:46.612Z,24.12
2023-05-24T04:30:46.624Z,24.15
2023-05-24T04:31:46.676Z,24.13
2023-05-24T04:32:46.746Z,24.12
2023-05-24T04:33:46.613Z,24.13
2023-05-24T04:34:46.646Z,24.12
2023-05-24T04:35:46.622Z,24.15
2023-05-24T04:36:46.629Z,24.15
2023-05-24T04:37:46.658Z,24.15
2023-05-24T04:38:46.623Z,24.13
2023-05-24T04:39:46.653Z,24.12
2023-05-24T04:40:46.619Z,24.13
2023-05-24T04:41:46.630Z,24.12
2023-05-24T04:42:46.628Z,24.09
2023-05-24T04:43:46.628Z,24.12
2023-05-24T04:44:46.633Z,24.13
2023-05-24T04:45:46.629Z,24.10
2023-05-24T04:46:46.689Z,24.12
2023-05-24T04:47:46.684Z,24.10
2023-05-24T04:48:46.609Z,24.13
2023-05-24T04:49:46.683Z,24.10
2023-05-24T04:50:46.639Z,24.12
2023-05-24T04:51:46.636Z,24.12
2023-05-24T04:52:46.672Z,24.10
2023-05-24T04:53:46.645Z,24.12
2023-05-24T04:54:46.623Z,24.12
2023-05-24T04:55:46.645Z,24.10
2023-05-24T04:56:46.650Z,24.10
2023-05-24T04:57:46.677Z,24.10
2023-05-24T04:58:46.626Z,24.13
2023-05-24T04:59:46.601Z,24.12
2023-05-24T05:00:46.582Z,24.13
2023-05-24T05:01:46.673Z,24.12
2023-05-24T05:02:46.652Z,24.09
2023-05-24T05:03:46.628Z,24.10
2023-05-24T05:04:46.567Z,24.12
2023-05-24T05:05:46.613Z,24.10
2023-05-24T05:06:46.555Z,24.10
2023-05-24T05:07:46.515Z,24.12
2023-05-24T05:08:46.531Z,24.12
2023-05-24T05:09:46.488Z,24.10
2023-05-24T05:10:46.484Z,24.12
2023-05-24T05:11:46.489Z,24.12
2023-05-24T05:12:46.480Z,24.10
2023-05-24T05:13:46.468Z,24.10
2023-05-24T05:14:46.471Z,24.12
2023-05-24T05:15:46.456Z,24.10
2023-05-24T05:16:46.744Z,24.10
2023-05-24T05:17:46.446Z,24.13
2023-05-24T05:18:46.435Z,24.09
2023-05-24T05:19:46.422Z,24.13
2023-05-24T05:20:46.716Z,24.08
2023-05-24T05:21:46.406Z,24.09
2023-05-24T05:22:46.370Z,24.10
2023-05-24T05:23:46.379Z,24.10
2023-05-24T05:24:46.352Z,24.12
2023-05-24T05:25:46.362Z,24.12
2023-05-24T05:26:46.371Z,24.09
2023-05-24T05:27:46.388Z,24.10
2023-05-24T05:28:46.343Z,24.09
2023-05-24T05:29:46.341Z,24.09
2023-05-24T05:30:46.373Z,24.12
2023-05-24T05:31:46.360Z,24.12
2023-05-24T05:32:46.554Z,24.13
2023-05-24T05:33:46.385Z,24.12
2023-05-24T05:34:46.360Z,24.12
2023-05-24T05:35:46.343Z,24.12
2023-05-24T05:36:46.354Z,24.16
2023-05-24T05:37:46.400Z,24.19
2023-05-24T05:38:46.401Z,24.19
2023-05-24T05:39:46.350Z,24.24
2023-05-24T05:40:46.349Z,24.23
2023-05-24T05:41:46.372Z,24.26
2023-05-24T05:42:46.318Z,24.24
2023-05-24T05:43:46.304Z,24.29
2023-05-24T05:44:46.364Z,24.36
2023-05-24T05:45:46.384Z,24.38
2023-05-24T05:46:46.538Z,24.41
2023-05-24T05:47:46.306Z,24.46
2023-05-24T05:48:46.574Z,24.47
2023-05-24T05:49:46.254Z,24.51
2023-05-24T05:50:46.294Z,24.58
2023-05-24T05:51:46.237Z,24.60
2023-05-24T05:52:46.222Z,24.60
2023-05-24T05:53:46.312Z,24.63
2023-05-24T05:54:46.310Z,24.63
2023-05-24T05:55:46.295Z,24.64
2023-05-24T05:56:46.368Z,24.63
2023-05-24T05:57:46.425Z,24.63
2023-05-24T05:58:46.466Z,24.63
2023-05-24T05:59:46.507Z,24.61
2023-05-24T06:00:46.646Z,24.61
2023-05-24T06:01:46.634Z,24.63
2023-05-24T06:02:46.955Z,24.61
2023-05-24T06:03:46.961Z,24.60
2023-05-24T06:04:46.791Z,24.55
2023-05-24T06:05:46.830Z,24.55
2023-05-24T06:06:46.898Z,24.57
2023-05-24T06:07:46.894Z,24.54
2023-05-24T06:08:46.912Z,24.54
2023-05-24T06:09:46.928Z,24.51
2023-05-24T06:10:46.980Z,24.51
2023-05-24T06:11:47.077Z,24.50
2023-05-24T06:12:47.056Z,24.50
2023-05-24T06:13:47.134Z,24.50
2023-05-24T06:14:47.009Z,24.47
2023-05-24T06:15:47.156Z,24.46
2023-05-24T06:16:47.120Z,24.48
2023-05-24T06:17:47.159Z,24.46
2023-05-24T06:18:57.056Z,24.47
2023-05-24T06:19:48.126Z,24.46
2023-05-24T06:20:47.250Z,24.44
2023-05-24T06:21:47.113Z,24.46
2023-05-24T06:22:47.286Z,24.44
2023-05-24T06:23:47.197Z,24.44
2023-05-24T06:24:47.062Z,24.40
2023-05-24T06:25:47.055Z,24.41
2023-05-24T06:26:47.489Z,24.43
2023-05-24T06:27:47.356Z,24.41
2023-05-24T06:28:47.029Z,24.41
2023-05-24T06:29:47.079Z,24.41
2023-05-24T06:30:47.141Z,24.43
2023-05-24T06:31:47.173Z,24.40
2023-05-24T06:32:47.028Z,24.43
2023-05-24T06:33:55.981Z,24.46
2023-05-24T06:34:47.997Z,24.41
2023-05-24T06:35:46.995Z,24.43
2023-05-24T06:36:46.983Z,24.43
2023-05-24T06:37:46.992Z,24.43
2023-05-24T06:38:46.976Z,24.41
2023-05-24T06:39:46.953Z,24.41
2023-05-24T06:40:47.050Z,24.43
2023-05-24T06:41:47.128Z,24.43
2023-05-24T06:42:46.935Z,24.23
2023-05-24T06:43:46.939Z,24.31
2023-05-24T06:44:46.921Z,24.37
2023-05-24T06:45:46.943Z,24.40
2023-05-24T06:46:47.034Z,24.36
2023-05-24T06:47:47.151Z,24.41
2023-05-24T06:48:47.200Z,24.44
2023-05-24T06:49:47.162Z,24.50
2023-05-24T06:50:47.349Z,24.53
2023-05-24T06:51:47.257Z,24.54
2023-05-24T06:52:47.373Z,24.57
2023-05-24T06:53:47.328Z,24.60
2023-05-24T06:54:47.297Z,24.61
2023-05-24T06:55:47.319Z,24.64
2023-05-24T06:56:47.287Z,24.67
2023-05-24T06:57:47.249Z,24.65
2023-05-24T06:58:47.218Z,24.68
2023-05-24T06:59:47.202Z,24.70
2023-05-24T07:00:47.227Z,24.71
2023-05-24T07:01:47.258Z,24.72
2023-05-24T07:02:47.302Z,24.74
2023-05-24T07:03:47.335Z,24.75
2023-05-24T07:04:47.405Z,24.77
2023-05-24T07:05:47.432Z,24.81
2023-05-24T07:06:47.480Z,24.81
2023-05-24T07:07:47.507Z,24.82
2023-05-24T07:08:47.563Z,24.82
2023-05-24T07:09:47.594Z,24.84
2023-05-24T07:10:47.591Z,24.86
2023-05-24T07:11:47.604Z,24.88
2023-05-24T07:12:47.548Z,24.88
2023-05-24T07:13:47.550Z,24.91
2023-05-24T07:14:47.532Z,24.91
2023-05-24T07:15:47.551Z,24.92
2023-05-24T07:16:47.606Z,24.92
2023-05-24T07:17:47.545Z,24.95
2023-05-24T07:18:47.486Z,24.93
2023-05-24T07:19:47.488Z,24.96
2023-05-24T07:20:48.002Z,24.96
2023-05-24T07:21:47.517Z,24.98
2023-05-24T07:22:47.581Z,24.98
2023-05-24T07:23:47.538Z,24.99
2023-05-24T07:24:47.578Z,24.99
2023-05-24T07:25:47.619Z,25.02
2023-05-24T07:26:47.656Z,25.03
2023-05-24T07:27:47.699Z,25.03
2023-05-24T07:28:47.734Z,25.02
2023-05-24T07:29:48.510Z,25.02
2023-05-24T07:30:48.061Z,25.03
2023-05-24T07:31:48.748Z,25.05
2023-05-24T07:32:47.995Z,25.03
2023-05-24T07:33:47.939Z,25.03
2023-05-24T07:34:47.935Z,25.09
2023-05-24T07:35:47.967Z,25.06
2023-05-24T07:36:48.082Z,25.09
2023-05-24T07:37:48.043Z,25.03
2023-05-24T07:38:47.983Z,24.98
2023-05-24T07:39:47.964Z,25.08
2023-05-24T07:40:48.052Z,24.68
2023-05-24T07:41:48.012Z,24.47
2023-05-24T07:42:47.939Z,24.57
2023-05-24T07:43:47.971Z,24.63
2023-05-24T07:44:47.921Z,24.68
2023-05-24T07:45:47.980Z,24.75
2023-05-24T07:46:47.941Z,24.77
2023-05-24T07:47:48.067Z,24.82
2023-05-24T07:48:48.208Z,24.88
2023-05-24T07:49:48.030Z,24.91
2023-05-24T07:50:48.063Z,24.95
2023-05-24T07:51:48.083Z,24.98
2023-05-24T07:52:48.145Z,25.02
2023-05-24T07:53:48.219Z,25.06
2023-05-24T07:54:48.140Z,25.12
2023-05-24T07:55:48.178Z,25.15
2023-05-24T07:56:48.254Z,25.18
2023-05-24T07:57:48.180Z,25.22
2023-05-24T07:58:48.192Z,25.28
2023-05-24T07:59:48.223Z,25.28
2023-05-24T08:00:48.223Z,25.34
2023-05-24T08:01:48.697Z,25.36
2023-05-24T08:02:48.297Z,25.36
2023-05-24T08:03:48.400Z,25.39
2023-05-24T08:04:48.264Z,25.43
2023-05-24T08:05:48.271Z,25.43
2023-05-24T08:06:48.317Z,25.41
2023-05-24T08:07:48.376Z,25.44
2023-05-24T08:08:48.303Z,25.44
2023-05-24T08:09:48.311Z,25.48
2023-05-24T08:10:48.326Z,25.46
2023-05-24T08:11:48.357Z,25.50
2023-05-24T08:12:48.332Z,25.48
2023-05-24T08:13:48.369Z,25.51
2023-05-24T08:14:48.356Z,25.51
2023-05-24T08:15:48.378Z,25.53
2023-05-24T08:16:48.427Z,25.54
2023-05-24T08:17:48.460Z,25.53
2023-05-24T08:18:48.389Z,25.51
2023-05-24T08:19:48.406Z,25.15
2023-05-24T08:20:48.531Z,25.36
2023-05-24T08:21:48.427Z,25.37
2023-05-24T08:22:48.461Z,25.40
2023-05-24T08:23:48.467Z,25.41
2023-05-24T08:24:48.490Z,25.41
2023-05-24T08:25:48.642Z,25.43
2023-05-24T08:26:48.519Z,25.41
2023-05-24T08:27:48.565Z,25.43
2023-05-24T08:28:48.579Z,25.47
2023-05-24T08:29:48.539Z,25.47
2023-05-24T08:30:48.556Z,23.65
2023-05-24T08:31:48.553Z,22.69
2023-05-24T08:32:48.637Z,22.27
2023-05-24T08:33:48.562Z,20.87
2023-05-24T08:34:48.562Z,21.13
2023-05-24T08:35:49.211Z,20.49
2023-05-24T08:36:48.607Z,19.87
2023-05-24T08:37:48.657Z,19.79
2023-05-24T08:38:48.660Z,18.86
2023-05-24T08:39:48.662Z,19.10
2023-05-24T08:40:48.701Z,19.11
2023-05-24T08:42:01.037Z,19.25
2023-05-24T08:42:49.791Z,19.10
2023-05-24T08:43:48.799Z,18.91
2023-05-24T08:44:48.849Z,18.95
2023-05-24T08:45:48.924Z,19.50
2023-05-24T08:46:48.994Z,19.94
2023-05-24T08:47:49.034Z,20.29
2023-05-24T08:48:48.951Z,20.60
2023-05-24T08:49:49.056Z,20.89
2023-05-24T08:50:48.961Z,21.15
2023-05-24T08:51:50.840Z,21.41
2023-05-24T08:52:49.082Z,21.62
2023-05-24T08:53:49.187Z,21.83
2023-05-24T08:54:49.159Z,22.03
2023-05-24T08:55:49.221Z,22.20
2023-05-24T08:56:49.242Z,22.35
2023-05-24T08:57:49.279Z,22.54
2023-05-24T08:58:49.282Z,22.68
2023-05-24T08:59:49.320Z,22.80
2023-05-24T09:00:49.362Z,22.93
2023-05-24T09:01:49.365Z,23.05
2023-05-24T09:02:49.299Z,23.17
2023-05-24T09:03:49.340Z,23.27
2023-05-24T09:04:49.304Z,23.37
2023-05-24T09:05:49.307Z,23.44
2023-05-24T09:06:49.719Z,23.54
2023-05-24T09:07:49.483Z,23.62
2023-05-24T09:08:49.373Z,23.68
2023-05-24T09:09:49.302Z,23.73
2023-05-24T09:10:55.638Z,23.79
2023-05-24T09:11:50.332Z,23.86
2023-05-24T09:12:49.363Z,23.91
2023-05-24T09:13:49.305Z,23.93
2023-05-24T09:14:49.309Z,24.00
2023-05-24T09:15:49.379Z,24.06
2023-05-24T09:16:49.342Z,24.08
2023-05-24T09:17:49.362Z,24.12
2023-05-24T09:18:49.396Z,24.13
2023-05-24T09:19:49.344Z,24.19
2023-05-24T09:20:49.384Z,24.21
2023-05-24T09:21:49.331Z,24.26
2023-05-24T09:22:49.392Z,24.24
2023-05-24T09:23:49.350Z,24.30
2023-05-24T09:24:49.360Z,24.31
2023-05-24T09:25:49.342Z,24.34
2023-05-24T09:26:49.340Z,24.36
2023-05-24T09:27:49.469Z,24.36
2023-05-24T09:28:49.328Z,24.37
2023-05-24T09:29:49.349Z,24.40
2023-05-24T09:30:49.342Z,24.43
2023-05-24T09:31:49.411Z,24.43
2023-05-24T09:32:49.369Z,24.44
2023-05-24T09:33:49.317Z,24.44
2023-05-24T09:34:49.352Z,24.47
2023-05-24T09:35:49.345Z,24.47
2023-05-24T09:36:49.338Z,24.48
2023-05-24T09:37:49.362Z,24.48
2023-05-24T09:38:49.361Z,24.50
2023-05-24T09:39:49.355Z,24.53
2023-05-24T09:40:49.342Z,24.50
2023-05-24T09:41:49.682Z,24.46
2023-05-24T09:42:49.333Z,24.41
2023-05-24T09:43:49.364Z,22.76
2023-05-24T09:44:49.357Z,23.06
2023-05-24T09:45:49.604Z,21.85
2023-05-24T09:46:49.494Z,22.25
2023-05-24T09:47:49.414Z,22.01
2023-05-24T09:48:49.450Z,21.85
2023-05-24T09:49:49.458Z,21.53
2023-05-24T09:50:49.470Z,21.44
2023-05-24T09:51:49.589Z,20.53
2023-05-24T09:52:49.549Z,20.76
2023-05-24T09:53:49.683Z,20.83
2023-05-24T09:54:49.627Z,21.04
2023-05-24T09:55:49.675Z,21.00
2023-05-24T09:56:49.699Z,20.94
2023-05-24T09:57:49.723Z,21.11
2023-05-24T09:58:49.851Z,21.33
2023-05-24T09:59:49.904Z,21.42
2023-05-24T10:00:50.017Z,21.59
2023-05-24T10:01:50.167Z,21.72
2023-05-24T10:02:53.061Z,21.66
2023-05-24T10:03:50.278Z,21.90
2023-05-24T10:04:50.308Z,22.10
2023-05-24T10:05:50.226Z,22.24
2023-05-24T10:06:50.265Z,22.37
2023-05-24T10:07:50.277Z,22.51
2023-05-24T10:08:50.333Z,22.61
2023-05-24T10:09:50.392Z,22.75
2023-05-24T10:10:50.336Z,22.88
2023-05-24T10:11:50.627Z,22.95
2023-05-24T10:12:50.338Z,23.03
2023-05-24T10:13:50.383Z,23.11
2023-05-24T10:14:50.433Z,23.20
2023-05-24T10:15:50.440Z,23.27
2023-05-24T10:16:50.547Z,23.34
2023-05-24T10:17:50.506Z,23.41
2023-05-24T10:18:50.536Z,23.47
2023-05-24T10:19:50.480Z,23.54
2023-05-24T10:20:51.071Z,23.57
2023-05-24T10:21:50.571Z,23.62
2023-05-24T10:22:50.603Z,23.68
2023-05-24T10:23:50.504Z,23.71
2023-05-24T10:24:50.681Z,23.73
2023-05-24T10:25:50.500Z,23.79
2023-05-24T10:26:50.544Z,23.85
2023-05-24T10:27:50.533Z,23.85
2023-05-24T10:28:50.525Z,23.89
2023-05-24T10:29:50.556Z,23.92
2023-05-24T10:30:50.680Z,23.95
2023-05-24T10:31:50.596Z,23.95
2023-05-24T10:32:50.634Z,24.00
2023-05-24T10:33:50.586Z,24.03
2023-05-24T10:34:50.604Z,24.03
2023-05-24T10:35:50.662Z,24.06
2023-05-24T10:36:50.750Z,24.00
2023-05-24T10:37:50.788Z,24.03
2023-05-24T10:38:50.791Z,24.09
2023-05-24T10:39:50.817Z,24.10
2023-05-24T10:40:50.980Z,24.03
2023-05-24T10:41:50.859Z,24.13
2023-05-24T10:42:50.825Z,24.19
2023-05-24T10:44:04.857Z,24.24
2023-05-24T10:44:51.834Z,24.26
2023-05-24T10:45:50.901Z,24.30
2023-05-24T10:46:50.836Z,24.34
2023-05-24T10:47:50.884Z,24.38
2023-05-24T10:48:50.812Z,24.44
2023-05-24T10:49:50.826Z,24.44
2023-05-24T10:50:50.890Z,24.47
2023-05-24T10:51:50.824Z,24.47
2023-05-24T10:52:50.839Z,24.48
2023-05-24T10:53:50.817Z,24.54
2023-05-24T10:55:03.268Z,24.60
2023-05-24T10:55:51.840Z,24.63
2023-05-24T10:56:50.818Z,24.67
2023-05-24T10:57:50.818Z,24.71
2023-05-24T10:58:50.814Z,24.72
2023-05-24T10:59:50.880Z,24.77
2023-05-24T11:00:50.946Z,24.75
2023-05-24T11:01:50.863Z,24.79
2023-05-24T11:02:50.858Z,24.82
2023-05-24T11:03:50.822Z,24.84
2023-05-24T11:04:50.824Z,24.85
2023-05-24T11:05:50.987Z,24.89
2023-05-24T11:06:50.870Z,24.89
2023-05-24T11:07:50.803Z,24.91
2023-05-24T11:08:50.800Z,24.93
2023-05-24T11:09:50.799Z,24.98
2023-05-24T11:10:50.788Z,24.98
2023-05-24T11:11:50.809Z,25.01
2023-05-24T11:12:50.841Z,25.05
2023-05-24T11:13:50.876Z,25.03
2023-05-24T11:14:50.805Z,25.02
2023-05-24T11:15:50.826Z,25.06
2023-05-24T11:16:50.843Z,25.10
2023-05-24T11:17:50.854Z,25.13
2023-05-24T11:18:50.756Z,25.15
2023-05-24T11:19:50.808Z,25.16
2023-05-24T11:20:50.822Z,25.20
2023-05-24T11:21:50.725Z,25.23
2023-05-24T11:22:50.722Z,25.20
2023-05-24T11:23:50.674Z,25.25
2023-05-24T11:24:50.692Z,25.26
2023-05-24T11:25:50.626Z,25.26
2023-05-24T11:26:50.631Z,25.26
2023-05-24T11:27:50.728Z,25.29
2023-05-24T11:28:50.566Z,25.30
2023-05-24T11:29:50.606Z,25.34
2023-05-24T11:30:50.621Z,25.33
2023-05-24T11:31:50.535Z,25.34
2023-05-24T11:32:50.515Z,25.34
2023-05-24T11:33:50.461Z,25.37
2023-05-24T11:34:50.510Z,25.37
2023-05-24T11:35:50.438Z,25.34
2023-05-24T11:36:50.414Z,25.36
2023-05-24T11:37:50.389Z,25.33
2023-05-24T11:38:50.384Z,25.34
2023-05-24T11:39:50.359Z,25.30
2023-05-24T11:40:50.329Z,25.33
2023-05-24T11:41:50.358Z,25.32
2023-05-24T11:42:50.314Z,25.30
2023-05-24T11:43:50.290Z,25.28
2023-05-24T11:44:50.284Z,25.25
2023-05-24T11:45:50.319Z,25.28
2023-05-24T11:46:50.297Z,25.26
2023-05-24T11:47:50.247Z,25.20
2023-05-24T11:48:50.231Z,25.20
2023-05-24T11:49:50.182Z,25.18
2023-05-24T11:50:50.645Z,25.16
2023-05-24T11:51:50.169Z,25.15
2023-05-24T11:52:50.145Z,25.13
2023-05-24T11:54:50.139Z,25.12
2023-05-24T11:55:50.139Z,25.12
2023-05-24T11:56:50.114Z,25.09
2023-05-24T11:57:50.063Z,25.10
2023-05-24T11:58:50.070Z,25.05
2023-05-24T11:59:50.029Z,25.08
2023-05-24T12:00:50.010Z,25.08
2023-05-24T12:01:50.032Z,25.05
2023-05-24T12:02:50.131Z,25.05
2023-05-24T12:03:50.395Z,25.02
2023-05-24T12:04:50.227Z,25.03
2023-05-24T12:05:50.195Z,25.01
2023-05-24T12:06:50.213Z,24.99
2023-05-24T12:07:50.266Z,25.02
2023-05-24T12:08:50.308Z,25.01
2023-05-24T12:09:50.318Z,24.99
2023-05-24T12:10:50.382Z,24.99
2023-05-24T12:11:50.417Z,24.99
2023-05-24T12:12:50.440Z,24.96
2023-05-24T12:13:50.476Z,24.98
2023-05-24T12:14:50.520Z,24.98
2023-05-24T12:15:52.687Z,24.96
2023-05-24T12:16:50.549Z,24.96
2023-05-24T12:17:50.610Z,24.96
2023-05-24T12:19:02.355Z,24.96
2023-05-24T12:19:51.510Z,24.98
2023-05-24T12:20:50.623Z,24.98
2023-05-24T12:21:52.734Z,24.95
2023-05-24T12:22:50.471Z,24.96
2023-05-24T12:23:50.408Z,24.96
2023-05-24T12:24:50.365Z,24.95
2023-05-24T12:25:50.342Z,24.98
2023-05-24T12:26:50.359Z,24.95
2023-05-24T12:27:52.294Z,24.96
2023-05-24T12:28:50.304Z,24.96
2023-05-24T12:29:50.272Z,24.93
2023-05-24T12:30:50.242Z,24.93
2023-05-24T12:31:50.283Z,24.95
2023-05-24T12:32:50.237Z,24.96
2023-05-24T12:33:52.125Z,24.95
2023-05-24T12:34:50.185Z,24.92
2023-05-24T12:35:50.253Z,24.93
2023-05-24T12:36:50.133Z,24.95
2023-05-24T12:37:50.108Z,24.95
2023-05-24T12:38:50.082Z,24.92
2023-05-24T12:40:59.952Z,24.93
2023-05-24T12:41:51.042Z,24.89
2023-05-24T12:42:50.132Z,24.92
2023-05-24T12:43:50.122Z,24.91
2023-05-24T12:44:49.985Z,24.93
2023-05-24T12:45:51.183Z,24.91
2023-05-24T12:46:49.995Z,24.91
2023-05-24T12:47:49.932Z,24.91
2023-05-24T12:48:49.909Z,24.89
2023-05-24T12:49:49.894Z,24.91
2023-05-24T12:50:49.888Z,24.89
2023-05-24T12:51:49.868Z,24.91
2023-05-24T12:52:49.866Z,24.88
2023-05-24T12:53:49.837Z,24.92
2023-05-24T12:54:49.835Z,24.89